Jill Reinauer — WCW9655 — position and weather

sailwx.info

Track history (hours):
 
Tides and Currents Weather Stations Pressure Air Temp Water Temp Dewpoint Dewpoint Depression Visibility Wind Speed Wind Dir Waves Ship Positions

Jill Reinauer

Owner: REINAUER TRANSPORTATION CO.,LLC., STATEN ISLAND, NY. More information available from US FCC via Universal Licensing System and Coast Guard Vessel Documentation Center.

Last reported at 2017-Sep-19 19:45 UTC. Time now 2017-Sep-19 22:19 UTC.
Position N 40°33' W 074°15'.

Length 30 m; draft 4 m.

Type: Tug. MMSI: 366727190.

Date/timePositionNaut miles runAvg speedWind from/ knotsBaromVisibWave heightAir tempDewpointWater temp
2017-Sep-19 19:45N 40°33' W 074°15'1 2.0
2017-Sep-19 19:15N 40°33' W 074°14'0 0.2
2017-Sep-19 19:00N 40°33' W 074°14'0 0.2
2017-Sep-19 18:27N 40°33' W 074°14'0 0.0
2017-Sep-19 17:52N 40°34' W 074°14'0 0.0
2017-Sep-19 17:08N 40°34' W 074°14'0 0.0
2017-Sep-19 17:00N 40°34' W 074°14'0 0.2
2017-Sep-19 16:29N 40°33' W 074°14'3 5.6
2017-Sep-19 16:00N 40°36' W 074°12'0 0.0
2017-Sep-19 15:26N 40°36' W 074°12'0 0.0
2017-Sep-19 14:56N 40°36' W 074°12'0 0.0
2017-Sep-19 14:25N 40°36' W 074°12'0 0.0
2017-Sep-19 13:59N 40°36' W 074°12'0 0.0
2017-Sep-19 13:24N 40°36' W 074°12'0 0.0
2017-Sep-19 12:59N 40°36' W 074°12'0 0.0
2017-Sep-19 12:30N 40°36' W 074°12'0 0.0
2017-Sep-19 12:00N 40°36' W 074°12'0 0.0
2017-Sep-19 11:30N 40°36' W 074°12'0 0.0
2017-Sep-19 11:00N 40°36' W 074°12'0 0.0
2017-Sep-19 10:28N 40°36' W 074°12'0 0.0
2017-Sep-19 10:00N 40°36' W 074°12'2 4.4
2017-Sep-19 09:30N 40°38' W 074°12'0 0.8
2017-Sep-19 09:00N 40°38' W 074°12'0 0.2
2017-Sep-19 08:30N 40°38' W 074°12'0 0.4
2017-Sep-19 08:00N 40°38' W 074°12'2 3.2
2017-Sep-19 07:30N 40°36' W 074°12'3 0.5
2017-Sep-19 00:44N 40°33' W 074°14'0 0.3
2017-Sep-19 00:29N 40°33' W 074°14'1 2.4
2017-Sep-19 00:00N 40°33' W 074°15'1 0.7
2017-Sep-18 22:05N 40°31' W 074°15'2 1.3
2017-Sep-18 20:21N 40°33' W 074°14'3 6.4
2017-Sep-18 19:55N 40°36' W 074°12'0 0.0
2017-Sep-18 19:30N 40°36' W 074°12'1 1.2
2017-Sep-18 18:55N 40°36' W 074°12'0 0.0
2017-Sep-18 18:30N 40°36' W 074°12'1 1.7
2017-Sep-18 17:59N 40°36' W 074°12'3 4.8
2017-Sep-18 17:19N 40°33' W 074°15'0 1.0
2017-Sep-18 17:00N 40°33' W 074°15'0 0.0
2017-Sep-18 16:30N 40°33' W 074°15'0 0.0
2017-Sep-18 16:00N 40°33' W 074°15'0 0.0
2017-Sep-18 15:30N 40°33' W 074°15'0 0.0
2017-Sep-18 15:00N 40°33' W 074°15'0 0.7
2017-Sep-18 14:25N 40°33' W 074°15'1 0.9
2017-Sep-18 13:07N 40°33' W 074°14'1 9.4
2017-Sep-18 12:59N 40°34' W 074°13'5 9.2
2017-Sep-18 12:30N 40°38' W 074°12'4 8.9
2017-Sep-18 12:00N 40°39' W 074°06'4 7.9
2017-Sep-18 11:31N 40°40' W 074°01'2 3.7
2017-Sep-18 11:01N 40°39' W 074°03'2 3.6
2017-Sep-18 10:30N 40°40' W 074°01'0 0.0
2017-Sep-18 10:00N 40°40' W 074°01'3 6.6
2017-Sep-18 09:31N 40°39' W 074°05'2 4.1
2017-Sep-18 09:00N 40°38' W 074°08'0 0.0
2017-Sep-18 08:30N 40°38' W 074°08'0 0.0
2017-Sep-18 08:00N 40°38' W 074°08'0 0.0
2017-Sep-18 07:30N 40°38' W 074°08'0 0.0
2017-Sep-18 07:00N 40°38' W 074°08'0 0.0
2017-Sep-18 06:30N 40°38' W 074°08'0 0.0
2017-Sep-18 06:00N 40°38' W 074°08'0 0.0
2017-Sep-18 05:30N 40°38' W 074°08'0 0.0
2017-Sep-18 05:00N 40°38' W 074°08'0 0.0
2017-Sep-18 04:30N 40°38' W 074°08'0 0.0
2017-Sep-18 04:00N 40°38' W 074°08'0 0.0
2017-Sep-18 03:30N 40°38' W 074°08'0 0.0
2017-Sep-18 03:00N 40°38' W 074°08'0 0.0
2017-Sep-18 02:30N 40°38' W 074°08'2 4.2
2017-Sep-18 02:00N 40°39' W 074°05'5 9.5
2017-Sep-18 01:30N 40°42' W 074°00'510.4
2017-Sep-18 00:59N 40°47' W 073°56'3 5.4
2017-Sep-18 00:30N 40°44' W 073°58'4 8.2
2017-Sep-18 00:00N 40°41' W 074°01'4 8.5
2017-Sep-17 23:30N 40°39' W 074°06'1 2.8
2017-Sep-17 23:00N 40°38' W 074°08'0 0.0
2017-Sep-17 22:30N 40°38' W 074°08'0 0.0
2017-Sep-17 22:00N 40°38' W 074°08'0 0.0
2017-Sep-17 21:15N 40°38' W 074°08'0 0.0
2017-Sep-17 20:56N 40°38' W 074°08'0 0.0
2017-Sep-17 20:30N 40°38' W 074°08'0 0.0
2017-Sep-17 19:58N 40°38' W 074°08'4 8.6
2017-Sep-17 19:30N 40°40' W 074°03'0 0.6
2017-Sep-17 19:00N 40°40' W 074°03'0 0.1
2017-Sep-17 18:30N 40°40' W 074°03'0 0.1
2017-Sep-17 18:00N 40°40' W 074°03'0 0.0
2017-Sep-17 17:30N 40°40' W 074°03'0 0.0
2017-Sep-17 17:00N 40°40' W 074°03'1 2.0
2017-Sep-17 16:31N 40°40' W 074°01'0 1.0
2017-Sep-17 16:00N 40°40' W 074°01'0 0.0
2017-Sep-17 15:30N 40°40' W 074°01'0 0.0
2017-Sep-17 15:00N 40°40' W 074°01'0 0.0
2017-Sep-17 14:30N 40°40' W 074°01'0 0.0
2017-Sep-17 14:00N 40°40' W 074°01'0 0.0
2017-Sep-17 13:30N 40°40' W 074°01'0 0.0
2017-Sep-17 13:00N 40°40' W 074°01'0 0.0
2017-Sep-17 12:30N 40°40' W 074°01'0 0.0
2017-Sep-17 12:00N 40°40' W 074°01'0 0.0
2017-Sep-17 11:30N 40°40' W 074°01'0 0.0
2017-Sep-17 11:00N 40°40' W 074°01'0 0.0
2017-Sep-17 10:30N 40°40' W 074°01'0 0.0
2017-Sep-17 10:00N 40°40' W 074°01'0 0.0
2017-Sep-17 09:30N 40°40' W 074°01'0 0.0
2017-Sep-17 09:00N 40°40' W 074°01'0 0.0
2017-Sep-17 08:30N 40°40' W 074°01'0 0.0
2017-Sep-17 08:00N 40°40' W 074°01'0 0.0
2017-Sep-17 07:30N 40°40' W 074°01'0 0.0
2017-Sep-17 07:00N 40°40' W 074°01'0 0.0
2017-Sep-17 06:30N 40°40' W 074°01'0 0.0
2017-Sep-17 06:00N 40°40' W 074°01'1 2.2
2017-Sep-17 05:31N 40°40' W 074°02'2 4.0
2017-Sep-17 05:00N 40°39' W 074°05'3 6.1
2017-Sep-17 04:30N 40°41' W 074°02'2 4.6
2017-Sep-17 04:00N 40°44' W 074°01'3 6.2
2017-Sep-17 03:30N 40°41' W 074°02'5 9.0
2017-Sep-17 03:00N 40°39' W 074°08'0 0.3
2017-Sep-17 02:29N 40°38' W 074°08'0 0.0
2017-Sep-17 02:00N 40°38' W 074°08'0 0.0
2017-Sep-17 00:56N 40°38' W 074°08'0 0.0
2017-Sep-17 00:26N 40°38' W 074°08'0 0.0
2017-Sep-16 23:56N 40°38' W 074°08'0 0.0
2017-Sep-16 23:30N 40°38' W 074°08'0 0.0
2017-Sep-16 23:00N 40°38' W 074°08'0 0.0
2017-Sep-16 22:30N 40°38' W 074°08'0 0.0
2017-Sep-16 21:59N 40°38' W 074°08'0 0.0
2017-Sep-16 21:27N 40°38' W 074°08'1 2.1
2017-Sep-16 21:00N 40°39' W 074°07'1 2.2
2017-Sep-16 20:30N 40°39' W 074°05'3 6.7
2017-Sep-16 20:01N 40°40' W 074°01'0 0.1
2017-Sep-16 19:30N 40°40' W 074°01'0 0.0
2017-Sep-16 19:00N 40°40' W 074°01'0 0.0
2017-Sep-16 18:30N 40°40' W 074°01'0 0.0
2017-Sep-16 18:00N 40°40' W 074°01'0 0.0
2017-Sep-16 17:30N 40°40' W 074°01'0 0.0
2017-Sep-16 17:00N 40°40' W 074°01'0 0.0
2017-Sep-16 16:30N 40°40' W 074°01'0 0.0
2017-Sep-16 16:00N 40°40' W 074°01'0 0.0
2017-Sep-16 15:30N 40°40' W 074°01'0 0.0
2017-Sep-16 15:00N 40°40' W 074°01'3 6.9
2017-Sep-16 14:30N 40°39' W 074°05'2 3.7
2017-Sep-16 14:00N 40°38' W 074°08'0 0.0
2017-Sep-16 13:30N 40°38' W 074°08'0 0.0
2017-Sep-16 13:00N 40°38' W 074°08'0 0.0
2017-Sep-16 12:30N 40°38' W 074°08'0 0.0
2017-Sep-16 12:00N 40°38' W 074°08'0 0.0
2017-Sep-16 11:30N 40°38' W 074°08'0 0.0
2017-Sep-16 11:00N 40°38' W 074°08'0 0.0
2017-Sep-16 10:30N 40°38' W 074°08'0 0.0
2017-Sep-16 10:00N 40°38' W 074°08'1 1.4
2017-Sep-16 09:30N 40°39' W 074°07'0 0.5
2017-Sep-16 09:01N 40°39' W 074°07'0 0.2
2017-Sep-16 08:30N 40°39' W 074°07'1 2.0
2017-Sep-16 08:00N 40°38' W 074°08'0 0.0
2017-Sep-16 07:30N 40°38' W 074°08'0 0.0
2017-Sep-16 07:00N 40°38' W 074°08'0 0.0
2017-Sep-16 06:30N 40°38' W 074°08'0 0.0
2017-Sep-16 06:00N 40°38' W 074°08'3 6.9
2017-Sep-16 05:30N 40°38' W 074°12'2 4.6
2017-Sep-16 04:58N 40°35' W 074°13'1 1.4
2017-Sep-16 04:29N 40°36' W 074°12'0 0.0
2017-Sep-16 04:00N 40°36' W 074°12'0 0.0
2017-Sep-16 03:30N 40°36' W 074°12'0 0.0
2017-Sep-16 03:00N 40°36' W 074°12'0 0.0
2017-Sep-16 02:30N 40°36' W 074°12'4 7.0
2017-Sep-16 02:00N 40°39' W 074°10'4 8.4
2017-Sep-16 01:30N 40°42' W 074°07'0 0.3
2017-Sep-16 01:00N 40°42' W 074°07'1 1.3
2017-Sep-16 00:30N 40°43' W 074°07'0 0.0
2017-Sep-16 00:00N 40°43' W 074°07'0 0.0
2017-Sep-15 23:30N 40°43' W 074°07'0 0.0
2017-Sep-15 23:00N 40°43' W 074°07'0 1.0
2017-Sep-15 22:30N 40°42' W 074°07'4 8.8
2017-Sep-15 22:00N 40°39' W 074°11'4 3.5
2017-Sep-15 20:53N 40°35' W 074°13'1 1.2
2017-Sep-15 20:20N 40°36' W 074°12'0 0.0
2017-Sep-15 20:00N 40°36' W 074°12'0 0.0
2017-Sep-15 19:30N 40°36' W 074°12'0 0.0
2017-Sep-15 19:00N 40°36' W 074°12'0 0.0
2017-Sep-15 18:29N 40°36' W 074°12'0 0.0
2017-Sep-15 17:59N 40°36' W 074°12'0 0.0
2017-Sep-15 17:30N 40°36' W 074°12'0 0.0
2017-Sep-15 16:33N 40°36' W 074°12'1 6.0
2017-Sep-15 16:27N 40°36' W 074°12'3 7.5
2017-Sep-15 16:00N 40°39' W 074°09'4 7.2
2017-Sep-15 15:30N 40°39' W 074°04'1 2.8
2017-Sep-15 15:00N 40°39' W 074°06'0 0.8
2017-Sep-15 14:31N 40°39' W 074°07'1 1.1
2017-Sep-15 14:01N 40°39' W 074°07'0 0.8
2017-Sep-15 13:30N 40°38' W 074°08'0 0.0
2017-Sep-15 12:59N 40°38' W 074°08'0 0.0
2017-Sep-15 12:30N 40°38' W 074°08'0 0.0
2017-Sep-15 12:00N 40°38' W 074°08'0 0.0
2017-Sep-15 11:30N 40°38' W 074°08'0 0.0
2017-Sep-15 10:59N 40°38' W 074°08'0 0.0
2017-Sep-15 10:28N 40°38' W 074°08'0 0.0
2017-Sep-15 09:58N 40°38' W 074°08'0 0.1
2017-Sep-15 09:30N 40°38' W 074°08'0 0.0
2017-Sep-15 09:00N 40°38' W 074°08'0 0.0
2017-Sep-15 08:30N 40°38' W 074°08'3 5.6
2017-Sep-15 08:00N 40°41' W 074°08'1 2.9
2017-Sep-15 07:30N 40°43' W 074°07'0 0.5
2017-Sep-15 07:00N 40°43' W 074°07'0 0.0
2017-Sep-15 06:30N 40°43' W 074°07'3 6.6
2017-Sep-15 06:00N 40°40' W 074°08'1 2.5
2017-Sep-15 05:26N 40°38' W 074°08'0 0.0
2017-Sep-15 05:00N 40°38' W 074°08'0 0.0
2017-Sep-15 04:30N 40°38' W 074°08'0 0.0
2017-Sep-15 04:00N 40°38' W 074°08'0 0.0
2017-Sep-15 03:29N 40°38' W 074°08'0 0.0
2017-Sep-15 03:00N 40°38' W 074°08'0 0.0
2017-Sep-15 02:07N 40°38' W 074°08'0 0.0
2017-Sep-15 02:00N 40°38' W 074°08'0 0.0
2017-Sep-15 01:30N 40°38' W 074°08'0 0.0
2017-Sep-15 00:58N 40°38' W 074°08'0 0.0
2017-Sep-15 00:30N 40°38' W 074°08'1 1.4
2017-Sep-15 00:00N 40°39' W 074°07'1 1.2
2017-Sep-14 23:30N 40°39' W 074°06'4 8.2
2017-Sep-14 23:00N 40°40' W 074°01'0 0.6
2017-Sep-14 22:30N 40°40' W 074°01'0 0.0
2017-Sep-14 22:00N 40°40' W 074°01'0 0.0
2017-Sep-14 21:30N 40°40' W 074°01'0 0.0
2017-Sep-14 21:00N 40°40' W 074°01'0 0.0
2017-Sep-14 20:30N 40°40' W 074°01'0 0.0
2017-Sep-14 20:00N 40°40' W 074°01'0 0.0
2017-Sep-14 19:30N 40°40' W 074°01'0 0.0
2017-Sep-14 19:00N 40°40' W 074°01'0 0.0
2017-Sep-14 18:30N 40°40' W 074°01'0 0.0
2017-Sep-14 18:00N 40°40' W 074°01'0 0.0
2017-Sep-14 17:30N 40°40' W 074°01'0 0.0
2017-Sep-14 17:00N 40°40' W 074°01'0 0.0
2017-Sep-14 16:30N 40°40' W 074°01'0 0.0
2017-Sep-14 16:00N 40°40' W 074°01'0 0.0
2017-Sep-14 15:30N 40°40' W 074°01'0 0.0
2017-Sep-14 15:00N 40°40' W 074°01'0 0.0
2017-Sep-14 14:30N 40°40' W 074°01'0 0.0
2017-Sep-14 14:00N 40°40' W 074°01'0 0.4
2017-Sep-14 13:30N 40°40' W 074°01'0 0.0
2017-Sep-14 13:00N 40°40' W 074°01'0 0.0
2017-Sep-14 12:30N 40°40' W 074°01'0 0.0
2017-Sep-14 12:00N 40°40' W 074°01'2 4.6
2017-Sep-14 11:30N 40°40' W 074°04'3 6.3
2017-Sep-14 11:00N 40°38' W 074°08'0 0.0
2017-Sep-14 10:30N 40°38' W 074°08'0 0.0
2017-Sep-14 10:00N 40°38' W 074°08'0 0.0
2017-Sep-14 09:30N 40°38' W 074°08'0 0.0
2017-Sep-14 09:00N 40°38' W 074°08'0 0.0
2017-Sep-14 08:30N 40°38' W 074°08'0 0.0
2017-Sep-14 08:00N 40°38' W 074°08'0 0.0
2017-Sep-14 07:30N 40°38' W 074°08'1 1.4
2017-Sep-14 07:00N 40°39' W 074°07'0 0.0
2017-Sep-14 06:30N 40°39' W 074°07'0 0.1
2017-Sep-14 06:00N 40°39' W 074°07'1 1.5
2017-Sep-14 05:30N 40°38' W 074°08'0 0.0
2017-Sep-14 05:00N 40°38' W 074°08'0 0.0
2017-Sep-14 04:30N 40°38' W 074°08'0 0.0
2017-Sep-14 04:00N 40°38' W 074°08'0 0.0
2017-Sep-14 03:30N 40°38' W 074°08'0 0.0
2017-Sep-14 03:00N 40°38' W 074°08'0 0.0
2017-Sep-14 02:30N 40°38' W 074°08'0 0.0
2017-Sep-14 02:00N 40°38' W 074°08'0 0.0
2017-Sep-14 01:30N 40°38' W 074°08'0 0.0
2017-Sep-14 01:00N 40°38' W 074°08'0 0.0
2017-Sep-14 00:30N 40°38' W 074°08'0 0.0
2017-Sep-14 00:00N 40°38' W 074°08'0 0.0
2017-Sep-13 23:30N 40°38' W 074°08'0 0.0
2017-Sep-13 23:00N 40°38' W 074°08'0 0.0
2017-Sep-13 22:30N 40°38' W 074°08'0 0.0
2017-Sep-13 22:00N 40°38' W 074°08'0 0.0
2017-Sep-13 21:30N 40°38' W 074°08'0 0.0
2017-Sep-13 21:00N 40°38' W 074°08'0 0.0
2017-Sep-13 20:30N 40°38' W 074°08'0 0.2
2017-Sep-13 20:00N 40°39' W 074°08'0 0.3
2017-Sep-13 19:30N 40°39' W 074°08'4 5.5
2017-Sep-13 18:52N 40°38' W 074°12'1 3.8
2017-Sep-13 18:30N 40°36' W 074°12'0 0.1
2017-Sep-13 18:00N 40°36' W 074°12'0 0.2
2017-Sep-13 17:30N 40°37' W 074°12'1 1.6
2017-Sep-13 17:00N 40°36' W 074°12'0 0.0
2017-Sep-13 16:29N 40°36' W 074°12'0 0.5
2017-Sep-13 15:56N 40°36' W 074°12'0 0.5
2017-Sep-13 15:26N 40°36' W 074°12'0 0.0
2017-Sep-13 15:00N 40°36' W 074°12'0 0.0
2017-Sep-13 14:30N 40°36' W 074°12'0 0.0
2017-Sep-13 14:00N 40°36' W 074°12'0 0.0
2017-Sep-13 13:30N 40°36' W 074°12'0 0.0
2017-Sep-13 13:00N 40°36' W 074°12'0 0.0
2017-Sep-13 12:30N 40°36' W 074°12'0 0.0
2017-Sep-13 11:59N 40°36' W 074°12'0 0.0
2017-Sep-13 11:30N 40°36' W 074°12'0 0.0
2017-Sep-13 11:00N 40°36' W 074°12'3 5.9
2017-Sep-13 10:30N 40°39' W 074°11'0 0.8
2017-Sep-13 10:00N 40°39' W 074°11'3 6.4
2017-Sep-13 09:30N 40°39' W 074°07'1 1.7
2017-Sep-13 09:00N 40°38' W 074°08'1 1.0
2017-Sep-13 08:30N 40°39' W 074°07'2 4.0
2017-Sep-13 08:00N 40°39' W 074°05'3 5.8
2017-Sep-13 07:30N 40°40' W 074°01'0 0.3
2017-Sep-13 07:00N 40°40' W 074°01'0 0.0
2017-Sep-13 06:30N 40°40' W 074°01'0 0.0
2017-Sep-13 06:01N 40°40' W 074°01'0 0.0
2017-Sep-13 05:30N 40°40' W 074°01'0 0.0
2017-Sep-13 05:00N 40°40' W 074°01'0 0.0
2017-Sep-13 04:30N 40°40' W 074°01'0 0.0
2017-Sep-13 04:00N 40°40' W 074°01'0 0.0
2017-Sep-13 03:30N 40°40' W 074°01'0 0.0
2017-Sep-13 03:00N 40°40' W 074°01'0 0.0
2017-Sep-13 02:30N 40°40' W 074°01'0 0.0
2017-Sep-13 02:00N 40°40' W 074°01'0 0.0
2017-Sep-13 01:30N 40°40' W 074°01'0 0.0
2017-Sep-13 01:00N 40°40' W 074°01'0 0.0
2017-Sep-13 00:30N 40°40' W 074°01'0 0.0
2017-Sep-13 00:00N 40°40' W 074°01'0 0.0
2017-Sep-12 23:30N 40°40' W 074°01'0 0.0
2017-Sep-12 23:00N 40°40' W 074°01'0 0.0
2017-Sep-12 22:30N 40°40' W 074°01'0 0.0
2017-Sep-12 22:00N 40°40' W 074°01'0 0.1
2017-Sep-12 21:31N 40°40' W 074°01'0 0.1
2017-Sep-12 21:00N 40°40' W 074°01'0 0.0
2017-Sep-12 20:30N 40°40' W 074°01'0 0.0
2017-Sep-12 20:00N 40°40' W 074°01'1 1.8
2017-Sep-12 19:30N 40°41' W 074°02'1 2.0
2017-Sep-12 19:00N 40°40' W 074°03'2 3.1
2017-Sep-12 18:30N 40°39' W 074°03'2 3.7
2017-Sep-12 18:00N 40°40' W 074°02'1 1.5
2017-Sep-12 17:30N 40°40' W 074°01'0 0.0
2017-Sep-12 17:00N 40°40' W 074°01'0 0.0
2017-Sep-12 16:30N 40°40' W 074°01'0 0.0
2017-Sep-12 16:00N 40°40' W 074°01'0 0.0
2017-Sep-12 15:30N 40°40' W 074°01'0 0.0
2017-Sep-12 15:00N 40°40' W 074°01'0 0.0
2017-Sep-12 14:30N 40°40' W 074°01'0 0.0
2017-Sep-12 14:00N 40°40' W 074°01'0 0.0
2017-Sep-12 13:30N 40°40' W 074°01'0 0.0
2017-Sep-12 13:00N 40°40' W 074°01'0 0.0
2017-Sep-12 12:30N 40°40' W 074°01'0 0.0
2017-Sep-12 12:00N 40°40' W 074°01'0 0.0
2017-Sep-12 11:30N 40°40' W 074°01'0 0.0
2017-Sep-12 11:00N 40°40' W 074°01'0 0.0
2017-Sep-12 10:30N 40°40' W 074°01'0 0.0
2017-Sep-12 10:00N 40°40' W 074°01'0 0.0
2017-Sep-12 09:30N 40°40' W 074°01'0 0.0
2017-Sep-12 09:00N 40°40' W 074°01'0 0.0
2017-Sep-12 08:30N 40°40' W 074°01'0 0.0
2017-Sep-12 08:00N 40°40' W 074°01'0 0.0
2017-Sep-12 07:30N 40°40' W 074°01'0 0.0
2017-Sep-12 07:00N 40°40' W 074°01'0 0.0
2017-Sep-12 06:30N 40°40' W 074°01'0 0.0
2017-Sep-12 06:00N 40°40' W 074°01'0 0.0
2017-Sep-12 05:30N 40°40' W 074°01'0 0.0
2017-Sep-12 05:00N 40°40' W 074°01'0 0.0
2017-Sep-12 04:30N 40°40' W 074°01'0 0.0
2017-Sep-12 04:00N 40°40' W 074°01'0 0.0
2017-Sep-12 03:30N 40°40' W 074°01'0 0.0
2017-Sep-12 03:00N 40°40' W 074°01'0 0.0
2017-Sep-12 02:30N 40°40' W 074°01'0 0.0
2017-Sep-12 02:00N 40°40' W 074°01'0 0.0
2017-Sep-12 01:30N 40°40' W 074°01'0 0.0
2017-Sep-12 01:00N 40°40' W 074°01'1 1.3
2017-Sep-12 00:30N 40°41' W 074°02'3 6.3
2017-Sep-12 00:00N 40°39' W 074°05'2 4.1
2017-Sep-11 23:30N 40°38' W 074°08'1 1.4
2017-Sep-11 23:00N 40°39' W 074°07'0 0.7
2017-Sep-11 22:31N 40°39' W 074°07'0 0.7
2017-Sep-11 22:00N 40°38' W 074°08'0 0.0
2017-Sep-11 21:30N 40°38' W 074°08'0 0.0
2017-Sep-11 20:36N 40°38' W 074°08'0 4.4
2017-Sep-11 20:30N 40°39' W 074°08'3 6.2
2017-Sep-11 20:00N 40°38' W 074°12'2 4.0
2017-Sep-11 19:30N 40°36' W 074°12'0 0.0
2017-Sep-11 19:00N 40°36' W 074°12'0 0.0
2017-Sep-11 18:30N 40°36' W 074°12'0 0.0
2017-Sep-11 18:00N 40°36' W 074°12'0 0.0
2017-Sep-11 17:30N 40°36' W 074°12'1 2.5
2017-Sep-11 16:56N 40°37' W 074°12'3 8.0
2017-Sep-11 16:30N 40°39' W 074°09'3 6.6
2017-Sep-11 16:00N 40°43' W 074°07'0 0.9
2017-Sep-11 15:30N 40°43' W 074°07'0 0.3
2017-Sep-11 15:00N 40°43' W 074°07'0 0.0
2017-Sep-11 14:30N 40°43' W 074°07'0 0.0
2017-Sep-11 14:00N 40°43' W 074°07'1 1.3
2017-Sep-11 13:30N 40°42' W 074°07'3 5.4
2017-Sep-11 13:00N 40°40' W 074°09'1 3.0
2017-Sep-11 12:30N 40°39' W 074°10'2 3.3
2017-Sep-11 11:53N 40°38' W 074°12'0 0.0
2017-Sep-11 11:30N 40°38' W 074°12'2 3.2
2017-Sep-11 10:55N 40°36' W 074°12'0 0.0
2017-Sep-11 10:20N 40°36' W 074°12'0 0.0
2017-Sep-11 09:53N 40°36' W 074°12'0 0.0
2017-Sep-11 09:19N 40°36' W 074°12'0 0.0
2017-Sep-11 08:59N 40°36' W 074°12'0 0.0
2017-Sep-11 08:21N 40°36' W 074°12'0 0.0
2017-Sep-11 07:48N 40°36' W 074°12'0 0.0
2017-Sep-11 06:56N 40°36' W 074°12'0 0.0
2017-Sep-11 06:30N 40°36' W 074°12'0 0.0
2017-Sep-11 05:56N 40°36' W 074°12'1 0.9
2017-Sep-11 05:13N 40°35' W 074°12'2 5.5
2017-Sep-11 04:50N 40°37' W 074°12'3 7.9
2017-Sep-11 04:30N 40°39' W 074°10'5 9.1
2017-Sep-11 04:00N 40°43' W 074°07'0 0.1
2017-Sep-11 03:30N 40°43' W 074°07'2 3.6
2017-Sep-11 03:00N 40°41' W 074°08'3 5.2
2017-Sep-11 02:30N 40°39' W 074°08'0 0.5
2017-Sep-11 02:00N 40°38' W 074°08'0 0.0
2017-Sep-11 01:30N 40°38' W 074°08'0 0.0
2017-Sep-11 01:00N 40°38' W 074°08'0 0.0
2017-Sep-11 00:30N 40°38' W 074°08'0 0.0
2017-Sep-11 00:00N 40°38' W 074°08'0 0.0
2017-Sep-10 23:30N 40°38' W 074°08'0 0.0
2017-Sep-10 23:00N 40°38' W 074°08'0 0.0
2017-Sep-10 22:30N 40°38' W 074°08'0 0.0
2017-Sep-10 22:00N 40°38' W 074°08'0 0.0
2017-Sep-10 21:30N 40°38' W 074°08'0 0.0
2017-Sep-10 21:00N 40°38' W 074°08'0 0.0
2017-Sep-10 20:30N 40°38' W 074°08'0 0.0
2017-Sep-10 20:00N 40°38' W 074°08'0 0.0
2017-Sep-10 19:30N 40°38' W 074°08'0 0.0
2017-Sep-10 19:00N 40°38' W 074°08'0 0.0
2017-Sep-10 18:29N 40°38' W 074°08'0 0.0
2017-Sep-10 18:00N 40°38' W 074°08'1 2.0
2017-Sep-10 17:30N 40°39' W 074°07'0 0.0
2017-Sep-10 17:00N 40°39' W 074°07'0 0.0
2017-Sep-10 16:30N 40°39' W 074°07'0 0.0
2017-Sep-10 16:00N 40°39' W 074°07'0 0.2
2017-Sep-10 15:30N 40°39' W 074°07'0 0.3
2017-Sep-10 15:00N 40°39' W 074°06'1 1.0
2017-Sep-10 13:59N 40°38' W 074°08'0 0.0
2017-Sep-10 13:30N 40°38' W 074°08'0 0.0
2017-Sep-10 13:00N 40°38' W 074°08'0 0.0
2017-Sep-10 12:27N 40°38' W 074°08'0 0.0
2017-Sep-10 11:58N 40°38' W 074°08'0 0.0
2017-Sep-10 11:28N 40°38' W 074°08'0 0.0
2017-Sep-10 10:59N 40°38' W 074°08'0 0.0
2017-Sep-10 10:29N 40°38' W 074°08'0 0.0
2017-Sep-10 10:00N 40°38' W 074°08'0 0.0
2017-Sep-10 09:30N 40°38' W 074°08'0 0.0
2017-Sep-10 09:00N 40°38' W 074°08'0 0.0
2017-Sep-10 08:30N 40°38' W 074°08'0 0.0
2017-Sep-10 08:00N 40°38' W 074°08'0 0.0
2017-Sep-10 07:31N 40°38' W 074°08'0 0.0
2017-Sep-10 07:00N 40°38' W 074°08'0 0.0
2017-Sep-10 06:30N 40°38' W 074°08'3 5.7
2017-Sep-10 06:00N 40°38' W 074°12'1 1.7
2017-Sep-10 05:30N 40°38' W 074°12'0 0.2
2017-Sep-10 04:57N 40°38' W 074°12'0 0.3
2017-Sep-10 04:30N 40°38' W 074°12'0 0.1
2017-Sep-10 02:48N 40°38' W 074°12'1 4.1
2017-Sep-10 02:30N 40°36' W 074°12'2 3.2
2017-Sep-10 01:57N 40°35' W 074°13'3 6.7
2017-Sep-10 01:28N 40°32' W 074°15'0 0.0
2017-Sep-10 01:00N 40°32' W 074°15'0 0.0
2017-Sep-10 00:15N 40°32' W 074°15'0 0.0
2017-Sep-09 23:50N 40°32' W 074°15'0 0.0
2017-Sep-09 23:26N 40°32' W 074°15'0 0.0
2017-Sep-09 22:39N 40°32' W 074°15'0 0.0
2017-Sep-09 22:30N 40°32' W 074°15'0 0.0
2017-Sep-09 21:55N 40°32' W 074°15'0 0.0
2017-Sep-09 21:28N 40°32' W 074°15'0 0.0
2017-Sep-09 20:11N 40°32' W 074°15'0 0.0
2017-Sep-09 19:59N 40°32' W 074°15'  
Track history (hours):
 
Tides and Currents Weather Stations Pressure Air Temp Water Temp Dewpoint Dewpoint Depression Visibility Wind Speed Wind Dir Waves Ship Positions

Jill Reinauer

Owner: REINAUER TRANSPORTATION CO.,LLC., STATEN ISLAND, NY. More information available from US FCC via Universal Licensing System and Coast Guard Vessel Documentation Center.

Last reported at 2017-Sep-19 19:45 UTC. Time now 2017-Sep-19 22:19 UTC.
Position N 40°33' W 074°15'.

Length 30 m; draft 4 m.

Type: Tug. MMSI: 366727190.

Date/timePositionNaut miles runAvg speedWind from/ knotsBaromVisibWave heightAir tempDewpointWater temp
2017-Sep-19 19:45N 40°33' W 074°15'1 2.0
2017-Sep-19 19:15N 40°33' W 074°14'0 0.2
2017-Sep-19 19:00N 40°33' W 074°14'0 0.2
2017-Sep-19 18:27N 40°33' W 074°14'0 0.0
2017-Sep-19 17:52N 40°34' W 074°14'0 0.0
2017-Sep-19 17:08N 40°34' W 074°14'0 0.0
2017-Sep-19 17:00N 40°34' W 074°14'0 0.2
2017-Sep-19 16:29N 40°33' W 074°14'3 5.6
2017-Sep-19 16:00N 40°36' W 074°12'0 0.0
2017-Sep-19 15:26N 40°36' W 074°12'0 0.0
2017-Sep-19 14:56N 40°36' W 074°12'0 0.0
2017-Sep-19 14:25N 40°36' W 074°12'0 0.0
2017-Sep-19 13:59N 40°36' W 074°12'0 0.0
2017-Sep-19 13:24N 40°36' W 074°12'0 0.0
2017-Sep-19 12:59N 40°36' W 074°12'0 0.0
2017-Sep-19 12:30N 40°36' W 074°12'0 0.0
2017-Sep-19 12:00N 40°36' W 074°12'0 0.0
2017-Sep-19 11:30N 40°36' W 074°12'0 0.0
2017-Sep-19 11:00N 40°36' W 074°12'0 0.0
2017-Sep-19 10:28N 40°36' W 074°12'0 0.0
2017-Sep-19 10:00N 40°36' W 074°12'2 4.4
2017-Sep-19 09:30N 40°38' W 074°12'0 0.8
2017-Sep-19 09:00N 40°38' W 074°12'0 0.2
2017-Sep-19 08:30N 40°38' W 074°12'0 0.4
2017-Sep-19 08:00N 40°38' W 074°12'2 3.2
2017-Sep-19 07:30N 40°36' W 074°12'3 0.5
2017-Sep-19 00:44N 40°33' W 074°14'0 0.3
2017-Sep-19 00:29N 40°33' W 074°14'1 2.4
2017-Sep-19 00:00N 40°33' W 074°15'1 0.7
2017-Sep-18 22:05N 40°31' W 074°15'2 1.3
2017-Sep-18 20:21N 40°33' W 074°14'3 6.4
2017-Sep-18 19:55N 40°36' W 074°12'0 0.0
2017-Sep-18 19:30N 40°36' W 074°12'1 1.2
2017-Sep-18 18:55N 40°36' W 074°12'0 0.0
2017-Sep-18 18:30N 40°36' W 074°12'1 1.7
2017-Sep-18 17:59N 40°36' W 074°12'3 4.8
2017-Sep-18 17:19N 40°33' W 074°15'0 1.0
2017-Sep-18 17:00N 40°33' W 074°15'0 0.0
2017-Sep-18 16:30N 40°33' W 074°15'0 0.0
2017-Sep-18 16:00N 40°33' W 074°15'0 0.0
2017-Sep-18 15:30N 40°33' W 074°15'0 0.0
2017-Sep-18 15:00N 40°33' W 074°15'0 0.7
2017-Sep-18 14:25N 40°33' W 074°15'1 0.9
2017-Sep-18 13:07N 40°33' W 074°14'1 9.4
2017-Sep-18 12:59N 40°34' W 074°13'5 9.2
2017-Sep-18 12:30N 40°38' W 074°12'4 8.9
2017-Sep-18 12:00N 40°39' W 074°06'4 7.9
2017-Sep-18 11:31N 40°40' W 074°01'2 3.7
2017-Sep-18 11:01N 40°39' W 074°03'2 3.6
2017-Sep-18 10:30N 40°40' W 074°01'0 0.0
2017-Sep-18 10:00N 40°40' W 074°01'3 6.6
2017-Sep-18 09:31N 40°39' W 074°05'2 4.1
2017-Sep-18 09:00N 40°38' W 074°08'0 0.0
2017-Sep-18 08:30N 40°38' W 074°08'0 0.0
2017-Sep-18 08:00N 40°38' W 074°08'0 0.0
2017-Sep-18 07:30N 40°38' W 074°08'0 0.0
2017-Sep-18 07:00N 40°38' W 074°08'0 0.0
2017-Sep-18 06:30N 40°38' W 074°08'0 0.0
2017-Sep-18 06:00N 40°38' W 074°08'0 0.0
2017-Sep-18 05:30N 40°38' W 074°08'0 0.0
2017-Sep-18 05:00N 40°38' W 074°08'0 0.0
2017-Sep-18 04:30N 40°38' W 074°08'0 0.0
2017-Sep-18 04:00N 40°38' W 074°08'0 0.0
2017-Sep-18 03:30N 40°38' W 074°08'0 0.0
2017-Sep-18 03:00N 40°38' W 074°08'0 0.0
2017-Sep-18 02:30N 40°38' W 074°08'2 4.2
2017-Sep-18 02:00N 40°39' W 074°05'5 9.5
2017-Sep-18 01:30N 40°42' W 074°00'510.4
2017-Sep-18 00:59N 40°47' W 073°56'3 5.4
2017-Sep-18 00:30N 40°44' W 073°58'4 8.2
2017-Sep-18 00:00N 40°41' W 074°01'4 8.5
2017-Sep-17 23:30N 40°39' W 074°06'1 2.8
2017-Sep-17 23:00N 40°38' W 074°08'0 0.0
2017-Sep-17 22:30N 40°38' W 074°08'0 0.0
2017-Sep-17 22:00N 40°38' W 074°08'0 0.0
2017-Sep-17 21:15N 40°38' W 074°08'0 0.0
2017-Sep-17 20:56N 40°38' W 074°08'0 0.0
2017-Sep-17 20:30N 40°38' W 074°08'0 0.0
2017-Sep-17 19:58N 40°38' W 074°08'4 8.6
2017-Sep-17 19:30N 40°40' W 074°03'0 0.6
2017-Sep-17 19:00N 40°40' W 074°03'0 0.1
2017-Sep-17 18:30N 40°40' W 074°03'0 0.1
2017-Sep-17 18:00N 40°40' W 074°03'0 0.0
2017-Sep-17 17:30N 40°40' W 074°03'0 0.0
2017-Sep-17 17:00N 40°40' W 074°03'1 2.0
2017-Sep-17 16:31N 40°40' W 074°01'0 1.0
2017-Sep-17 16:00N 40°40' W 074°01'0 0.0
2017-Sep-17 15:30N 40°40' W 074°01'0 0.0
2017-Sep-17 15:00N 40°40' W 074°01'0 0.0
2017-Sep-17 14:30N 40°40' W 074°01'0 0.0
2017-Sep-17 14:00N 40°40' W 074°01'0 0.0
2017-Sep-17 13:30N 40°40' W 074°01'0 0.0
2017-Sep-17 13:00N 40°40' W 074°01'0 0.0
2017-Sep-17 12:30N 40°40' W 074°01'0 0.0
2017-Sep-17 12:00N 40°40' W 074°01'0 0.0
2017-Sep-17 11:30N 40°40' W 074°01'0 0.0
2017-Sep-17 11:00N 40°40' W 074°01'0 0.0
2017-Sep-17 10:30N 40°40' W 074°01'0 0.0
2017-Sep-17 10:00N 40°40' W 074°01'0 0.0
2017-Sep-17 09:30N 40°40' W 074°01'0 0.0
2017-Sep-17 09:00N 40°40' W 074°01'0 0.0
2017-Sep-17 08:30N 40°40' W 074°01'0 0.0
2017-Sep-17 08:00N 40°40' W 074°01'0 0.0
2017-Sep-17 07:30N 40°40' W 074°01'0 0.0
2017-Sep-17 07:00N 40°40' W 074°01'0 0.0
2017-Sep-17 06:30N 40°40' W 074°01'0 0.0
2017-Sep-17 06:00N 40°40' W 074°01'1 2.2
2017-Sep-17 05:31N 40°40' W 074°02'2 4.0
2017-Sep-17 05:00N 40°39' W 074°05'3 6.1
2017-Sep-17 04:30N 40°41' W 074°02'2 4.6
2017-Sep-17 04:00N 40°44' W 074°01'3 6.2
2017-Sep-17 03:30N 40°41' W 074°02'5 9.0
2017-Sep-17 03:00N 40°39' W 074°08'0 0.3
2017-Sep-17 02:29N 40°38' W 074°08'0 0.0
2017-Sep-17 02:00N 40°38' W 074°08'0 0.0
2017-Sep-17 00:56N 40°38' W 074°08'0 0.0
2017-Sep-17 00:26N 40°38' W 074°08'0 0.0
2017-Sep-16 23:56N 40°38' W 074°08'0 0.0
2017-Sep-16 23:30N 40°38' W 074°08'0 0.0
2017-Sep-16 23:00N 40°38' W 074°08'0 0.0
2017-Sep-16 22:30N 40°38' W 074°08'0 0.0
2017-Sep-16 21:59N 40°38' W 074°08'0 0.0
2017-Sep-16 21:27N 40°38' W 074°08'1 2.1
2017-Sep-16 21:00N 40°39' W 074°07'1 2.2
2017-Sep-16 20:30N 40°39' W 074°05'3 6.7
2017-Sep-16 20:01N 40°40' W 074°01'0 0.1
2017-Sep-16 19:30N 40°40' W 074°01'0 0.0
2017-Sep-16 19:00N 40°40' W 074°01'0 0.0
2017-Sep-16 18:30N 40°40' W 074°01'0 0.0
2017-Sep-16 18:00N 40°40' W 074°01'0 0.0
2017-Sep-16 17:30N 40°40' W 074°01'0 0.0
2017-Sep-16 17:00N 40°40' W 074°01'0 0.0
2017-Sep-16 16:30N 40°40' W 074°01'0 0.0
2017-Sep-16 16:00N 40°40' W 074°01'0 0.0
2017-Sep-16 15:30N 40°40' W 074°01'0 0.0
2017-Sep-16 15:00N 40°40' W 074°01'3 6.9
2017-Sep-16 14:30N 40°39' W 074°05'2 3.7
2017-Sep-16 14:00N 40°38' W 074°08'0 0.0
2017-Sep-16 13:30N 40°38' W 074°08'0 0.0
2017-Sep-16 13:00N 40°38' W 074°08'0 0.0
2017-Sep-16 12:30N 40°38' W 074°08'0 0.0
2017-Sep-16 12:00N 40°38' W 074°08'0 0.0
2017-Sep-16 11:30N 40°38' W 074°08'0 0.0
2017-Sep-16 11:00N 40°38' W 074°08'0 0.0
2017-Sep-16 10:30N 40°38' W 074°08'0 0.0
2017-Sep-16 10:00N 40°38' W 074°08'1 1.4
2017-Sep-16 09:30N 40°39' W 074°07'0 0.5
2017-Sep-16 09:01N 40°39' W 074°07'0 0.2
2017-Sep-16 08:30N 40°39' W 074°07'1 2.0
2017-Sep-16 08:00N 40°38' W 074°08'0 0.0
2017-Sep-16 07:30N 40°38' W 074°08'0 0.0
2017-Sep-16 07:00N 40°38' W 074°08'0 0.0
2017-Sep-16 06:30N 40°38' W 074°08'0 0.0
2017-Sep-16 06:00N 40°38' W 074°08'3 6.9
2017-Sep-16 05:30N 40°38' W 074°12'2 4.6
2017-Sep-16 04:58N 40°35' W 074°13'1 1.4
2017-Sep-16 04:29N 40°36' W 074°12'0 0.0
2017-Sep-16 04:00N 40°36' W 074°12'0 0.0
2017-Sep-16 03:30N 40°36' W 074°12'0 0.0
2017-Sep-16 03:00N 40°36' W 074°12'0 0.0
2017-Sep-16 02:30N 40°36' W 074°12'4 7.0
2017-Sep-16 02:00N 40°39' W 074°10'4 8.4
2017-Sep-16 01:30N 40°42' W 074°07'0 0.3
2017-Sep-16 01:00N 40°42' W 074°07'1 1.3
2017-Sep-16 00:30N 40°43' W 074°07'0 0.0
2017-Sep-16 00:00N 40°43' W 074°07'0 0.0
2017-Sep-15 23:30N 40°43' W 074°07'0 0.0
2017-Sep-15 23:00N 40°43' W 074°07'0 1.0
2017-Sep-15 22:30N 40°42' W 074°07'4 8.8
2017-Sep-15 22:00N 40°39' W 074°11'4 3.5
2017-Sep-15 20:53N 40°35' W 074°13'1 1.2
2017-Sep-15 20:20N 40°36' W 074°12'0 0.0
2017-Sep-15 20:00N 40°36' W 074°12'0 0.0
2017-Sep-15 19:30N 40°36' W 074°12'0 0.0
2017-Sep-15 19:00N 40°36' W 074°12'0 0.0
2017-Sep-15 18:29N 40°36' W 074°12'0 0.0
2017-Sep-15 17:59N 40°36' W 074°12'0 0.0
2017-Sep-15 17:30N 40°36' W 074°12'0 0.0
2017-Sep-15 16:33N 40°36' W 074°12'1 6.0
2017-Sep-15 16:27N 40°36' W 074°12'3 7.5
2017-Sep-15 16:00N 40°39' W 074°09'4 7.2
2017-Sep-15 15:30N 40°39' W 074°04'1 2.8
2017-Sep-15 15:00N 40°39' W 074°06'0 0.8
2017-Sep-15 14:31N 40°39' W 074°07'1 1.1
2017-Sep-15 14:01N 40°39' W 074°07'0 0.8
2017-Sep-15 13:30N 40°38' W 074°08'0 0.0
2017-Sep-15 12:59N 40°38' W 074°08'0 0.0
2017-Sep-15 12:30N 40°38' W 074°08'0 0.0
2017-Sep-15 12:00N 40°38' W 074°08'0 0.0
2017-Sep-15 11:30N 40°38' W 074°08'0 0.0
2017-Sep-15 10:59N 40°38' W 074°08'0 0.0
2017-Sep-15 10:28N 40°38' W 074°08'0 0.0
2017-Sep-15 09:58N 40°38' W 074°08'0 0.1
2017-Sep-15 09:30N 40°38' W 074°08'0 0.0
2017-Sep-15 09:00N 40°38' W 074°08'0 0.0
2017-Sep-15 08:30N 40°38' W 074°08'3 5.6
2017-Sep-15 08:00N 40°41' W 074°08'1 2.9
2017-Sep-15 07:30N 40°43' W 074°07'0 0.5
2017-Sep-15 07:00N 40°43' W 074°07'0 0.0
2017-Sep-15 06:30N 40°43' W 074°07'3 6.6
2017-Sep-15 06:00N 40°40' W 074°08'1 2.5
2017-Sep-15 05:26N 40°38' W 074°08'0 0.0
2017-Sep-15 05:00N 40°38' W 074°08'0 0.0
2017-Sep-15 04:30N 40°38' W 074°08'0 0.0
2017-Sep-15 04:00N 40°38' W 074°08'0 0.0
2017-Sep-15 03:29N 40°38' W 074°08'0 0.0
2017-Sep-15 03:00N 40°38' W 074°08'0 0.0
2017-Sep-15 02:07N 40°38' W 074°08'0 0.0
2017-Sep-15 02:00N 40°38' W 074°08'0 0.0
2017-Sep-15 01:30N 40°38' W 074°08'0 0.0
2017-Sep-15 00:58N 40°38' W 074°08'0 0.0
2017-Sep-15 00:30N 40°38' W 074°08'1 1.4
2017-Sep-15 00:00N 40°39' W 074°07'1 1.2
2017-Sep-14 23:30N 40°39' W 074°06'4 8.2
2017-Sep-14 23:00N 40°40' W 074°01'0 0.6
2017-Sep-14 22:30N 40°40' W 074°01'0 0.0
2017-Sep-14 22:00N 40°40' W 074°01'0 0.0
2017-Sep-14 21:30N 40°40' W 074°01'0 0.0
2017-Sep-14 21:00N 40°40' W 074°01'0 0.0
2017-Sep-14 20:30N 40°40' W 074°01'0 0.0
2017-Sep-14 20:00N 40°40' W 074°01'0 0.0
2017-Sep-14 19:30N 40°40' W 074°01'0 0.0
2017-Sep-14 19:00N 40°40' W 074°01'0 0.0
2017-Sep-14 18:30N 40°40' W 074°01'0 0.0
2017-Sep-14 18:00N 40°40' W 074°01'0 0.0
2017-Sep-14 17:30N 40°40' W 074°01'0 0.0
2017-Sep-14 17:00N 40°40' W 074°01'0 0.0
2017-Sep-14 16:30N 40°40' W 074°01'0 0.0
2017-Sep-14 16:00N 40°40' W 074°01'0 0.0
2017-Sep-14 15:30N 40°40' W 074°01'0 0.0
2017-Sep-14 15:00N 40°40' W 074°01'0 0.0
2017-Sep-14 14:30N 40°40' W 074°01'0 0.0
2017-Sep-14 14:00N 40°40' W 074°01'0 0.4
2017-Sep-14 13:30N 40°40' W 074°01'0 0.0
2017-Sep-14 13:00N 40°40' W 074°01'0 0.0
2017-Sep-14 12:30N 40°40' W 074°01'0 0.0
2017-Sep-14 12:00N 40°40' W 074°01'2 4.6
2017-Sep-14 11:30N 40°40' W 074°04'3 6.3
2017-Sep-14 11:00N 40°38' W 074°08'0 0.0
2017-Sep-14 10:30N 40°38' W 074°08'0 0.0
2017-Sep-14 10:00N 40°38' W 074°08'0 0.0
2017-Sep-14 09:30N 40°38' W 074°08'0 0.0
2017-Sep-14 09:00N 40°38' W 074°08'0 0.0
2017-Sep-14 08:30N 40°38' W 074°08'0 0.0
2017-Sep-14 08:00N 40°38' W 074°08'0 0.0
2017-Sep-14 07:30N 40°38' W 074°08'1 1.4
2017-Sep-14 07:00N 40°39' W 074°07'0 0.0
2017-Sep-14 06:30N 40°39' W 074°07'0 0.1
2017-Sep-14 06:00N 40°39' W 074°07'1 1.5
2017-Sep-14 05:30N 40°38' W 074°08'0 0.0
2017-Sep-14 05:00N 40°38' W 074°08'0 0.0
2017-Sep-14 04:30N 40°38' W 074°08'0 0.0
2017-Sep-14 04:00N 40°38' W 074°08'0 0.0
2017-Sep-14 03:30N 40°38' W 074°08'0 0.0
2017-Sep-14 03:00N 40°38' W 074°08'0 0.0
2017-Sep-14 02:30N 40°38' W 074°08'0 0.0
2017-Sep-14 02:00N 40°38' W 074°08'0 0.0
2017-Sep-14 01:30N 40°38' W 074°08'0 0.0
2017-Sep-14 01:00N 40°38' W 074°08'0 0.0
2017-Sep-14 00:30N 40°38' W 074°08'0 0.0
2017-Sep-14 00:00N 40°38' W 074°08'0 0.0
2017-Sep-13 23:30N 40°38' W 074°08'0 0.0
2017-Sep-13 23:00N 40°38' W 074°08'0 0.0
2017-Sep-13 22:30N 40°38' W 074°08'0 0.0
2017-Sep-13 22:00N 40°38' W 074°08'0 0.0
2017-Sep-13 21:30N 40°38' W 074°08'0 0.0
2017-Sep-13 21:00N 40°38' W 074°08'0 0.0
2017-Sep-13 20:30N 40°38' W 074°08'0 0.2
2017-Sep-13 20:00N 40°39' W 074°08'0 0.3
2017-Sep-13 19:30N 40°39' W 074°08'4 5.5
2017-Sep-13 18:52N 40°38' W 074°12'1 3.8
2017-Sep-13 18:30N 40°36' W 074°12'0 0.1
2017-Sep-13 18:00N 40°36' W 074°12'0 0.2
2017-Sep-13 17:30N 40°37' W 074°12'1 1.6
2017-Sep-13 17:00N 40°36' W 074°12'0 0.0
2017-Sep-13 16:29N 40°36' W 074°12'0 0.5
2017-Sep-13 15:56N 40°36' W 074°12'0 0.5
2017-Sep-13 15:26N 40°36' W 074°12'0 0.0
2017-Sep-13 15:00N 40°36' W 074°12'0 0.0
2017-Sep-13 14:30N 40°36' W 074°12'0 0.0
2017-Sep-13 14:00N 40°36' W 074°12'0 0.0
2017-Sep-13 13:30N 40°36' W 074°12'0 0.0
2017-Sep-13 13:00N 40°36' W 074°12'0 0.0
2017-Sep-13 12:30N 40°36' W 074°12'0 0.0
2017-Sep-13 11:59N 40°36' W 074°12'0 0.0
2017-Sep-13 11:30N 40°36' W 074°12'0 0.0
2017-Sep-13 11:00N 40°36' W 074°12'3 5.9
2017-Sep-13 10:30N 40°39' W 074°11'0 0.8
2017-Sep-13 10:00N 40°39' W 074°11'3 6.4
2017-Sep-13 09:30N 40°39' W 074°07'1 1.7
2017-Sep-13 09:00N 40°38' W 074°08'1 1.0
2017-Sep-13 08:30N 40°39' W 074°07'2 4.0
2017-Sep-13 08:00N 40°39' W 074°05'3 5.8
2017-Sep-13 07:30N 40°40' W 074°01'0 0.3
2017-Sep-13 07:00N 40°40' W 074°01'0 0.0
2017-Sep-13 06:30N 40°40' W 074°01'0 0.0
2017-Sep-13 06:01N 40°40' W 074°01'0 0.0
2017-Sep-13 05:30N 40°40' W 074°01'0 0.0
2017-Sep-13 05:00N 40°40' W 074°01'0 0.0
2017-Sep-13 04:30N 40°40' W 074°01'0 0.0
2017-Sep-13 04:00N 40°40' W 074°01'0 0.0
2017-Sep-13 03:30N 40°40' W 074°01'0 0.0
2017-Sep-13 03:00N 40°40' W 074°01'0 0.0
2017-Sep-13 02:30N 40°40' W 074°01'0 0.0
2017-Sep-13 02:00N 40°40' W 074°01'0 0.0
2017-Sep-13 01:30N 40°40' W 074°01'0 0.0
2017-Sep-13 01:00N 40°40' W 074°01'0 0.0
2017-Sep-13 00:30N 40°40' W 074°01'0 0.0
2017-Sep-13 00:00N 40°40' W 074°01'0 0.0
2017-Sep-12 23:30N 40°40' W 074°01'0 0.0
2017-Sep-12 23:00N 40°40' W 074°01'0 0.0
2017-Sep-12 22:30N 40°40' W 074°01'0 0.0
2017-Sep-12 22:00N 40°40' W 074°01'0 0.1
2017-Sep-12 21:31N 40°40' W 074°01'0 0.1
2017-Sep-12 21:00N 40°40' W 074°01'0 0.0
2017-Sep-12 20:30N 40°40' W 074°01'0 0.0
2017-Sep-12 20:00N 40°40' W 074°01'1 1.8
2017-Sep-12 19:30N 40°41' W 074°02'1 2.0
2017-Sep-12 19:00N 40°40' W 074°03'2 3.1
2017-Sep-12 18:30N 40°39' W 074°03'2 3.7
2017-Sep-12 18:00N 40°40' W 074°02'1 1.5
2017-Sep-12 17:30N 40°40' W 074°01'0 0.0
2017-Sep-12 17:00N 40°40' W 074°01'0 0.0
2017-Sep-12 16:30N 40°40' W 074°01'0 0.0
2017-Sep-12 16:00N 40°40' W 074°01'0 0.0
2017-Sep-12 15:30N 40°40' W 074°01'0 0.0
2017-Sep-12 15:00N 40°40' W 074°01'0 0.0
2017-Sep-12 14:30N 40°40' W 074°01'0 0.0
2017-Sep-12 14:00N 40°40' W 074°01'0 0.0
2017-Sep-12 13:30N 40°40' W 074°01'0 0.0
2017-Sep-12 13:00N 40°40' W 074°01'0 0.0
2017-Sep-12 12:30N 40°40' W 074°01'0 0.0
2017-Sep-12 12:00N 40°40' W 074°01'0 0.0
2017-Sep-12 11:30N 40°40' W 074°01'0 0.0
2017-Sep-12 11:00N 40°40' W 074°01'0 0.0
2017-Sep-12 10:30N 40°40' W 074°01'0 0.0
2017-Sep-12 10:00N 40°40' W 074°01'0 0.0
2017-Sep-12 09:30N 40°40' W 074°01'0 0.0
2017-Sep-12 09:00N 40°40' W 074°01'0 0.0
2017-Sep-12 08:30N 40°40' W 074°01'0 0.0
2017-Sep-12 08:00N 40°40' W 074°01'0 0.0
2017-Sep-12 07:30N 40°40' W 074°01'0 0.0
2017-Sep-12 07:00N 40°40' W 074°01'0 0.0
2017-Sep-12 06:30N 40°40' W 074°01'0 0.0
2017-Sep-12 06:00N 40°40' W 074°01'0 0.0
2017-Sep-12 05:30N 40°40' W 074°01'0 0.0
2017-Sep-12 05:00N 40°40' W 074°01'0 0.0
2017-Sep-12 04:30N 40°40' W 074°01'0 0.0
2017-Sep-12 04:00N 40°40' W 074°01'0 0.0
2017-Sep-12 03:30N 40°40' W 074°01'0 0.0
2017-Sep-12 03:00N 40°40' W 074°01'0 0.0
2017-Sep-12 02:30N 40°40' W 074°01'0 0.0
2017-Sep-12 02:00N 40°40' W 074°01'0 0.0
2017-Sep-12 01:30N 40°40' W 074°01'0 0.0
2017-Sep-12 01:00N 40°40' W 074°01'1 1.3
2017-Sep-12 00:30N 40°41' W 074°02'3 6.3
2017-Sep-12 00:00N 40°39' W 074°05'2 4.1
2017-Sep-11 23:30N 40°38' W 074°08'1 1.4
2017-Sep-11 23:00N 40°39' W 074°07'0 0.7
2017-Sep-11 22:31N 40°39' W 074°07'0 0.7
2017-Sep-11 22:00N 40°38' W 074°08'0 0.0
2017-Sep-11 21:30N 40°38' W 074°08'0 0.0
2017-Sep-11 20:36N 40°38' W 074°08'0 4.4
2017-Sep-11 20:30N 40°39' W 074°08'3 6.2
2017-Sep-11 20:00N 40°38' W 074°12'2 4.0
2017-Sep-11 19:30N 40°36' W 074°12'0 0.0
2017-Sep-11 19:00N 40°36' W 074°12'0 0.0
2017-Sep-11 18:30N 40°36' W 074°12'0 0.0
2017-Sep-11 18:00N 40°36' W 074°12'0 0.0
2017-Sep-11 17:30N 40°36' W 074°12'1 2.5
2017-Sep-11 16:56N 40°37' W 074°12'3 8.0
2017-Sep-11 16:30N 40°39' W 074°09'3 6.6
2017-Sep-11 16:00N 40°43' W 074°07'0 0.9
2017-Sep-11 15:30N 40°43' W 074°07'0 0.3
2017-Sep-11 15:00N 40°43' W 074°07'0 0.0
2017-Sep-11 14:30N 40°43' W 074°07'0 0.0
2017-Sep-11 14:00N 40°43' W 074°07'1 1.3
2017-Sep-11 13:30N 40°42' W 074°07'3 5.4
2017-Sep-11 13:00N 40°40' W 074°09'1 3.0
2017-Sep-11 12:30N 40°39' W 074°10'2 3.3
2017-Sep-11 11:53N 40°38' W 074°12'0 0.0
2017-Sep-11 11:30N 40°38' W 074°12'2 3.2
2017-Sep-11 10:55N 40°36' W 074°12'0 0.0
2017-Sep-11 10:20N 40°36' W 074°12'0 0.0
2017-Sep-11 09:53N 40°36' W 074°12'0 0.0
2017-Sep-11 09:19N 40°36' W 074°12'0 0.0
2017-Sep-11 08:59N 40°36' W 074°12'0 0.0
2017-Sep-11 08:21N 40°36' W 074°12'0 0.0
2017-Sep-11 07:48N 40°36' W 074°12'0 0.0
2017-Sep-11 06:56N 40°36' W 074°12'0 0.0
2017-Sep-11 06:30N 40°36' W 074°12'0 0.0
2017-Sep-11 05:56N 40°36' W 074°12'1 0.9
2017-Sep-11 05:13N 40°35' W 074°12'2 5.5
2017-Sep-11 04:50N 40°37' W 074°12'3 7.9
2017-Sep-11 04:30N 40°39' W 074°10'5 9.1
2017-Sep-11 04:00N 40°43' W 074°07'0 0.1
2017-Sep-11 03:30N 40°43' W 074°07'2 3.6
2017-Sep-11 03:00N 40°41' W 074°08'3 5.2
2017-Sep-11 02:30N 40°39' W 074°08'0 0.5
2017-Sep-11 02:00N 40°38' W 074°08'0 0.0
2017-Sep-11 01:30N 40°38' W 074°08'0 0.0
2017-Sep-11 01:00N 40°38' W 074°08'0 0.0
2017-Sep-11 00:30N 40°38' W 074°08'0 0.0
2017-Sep-11 00:00N 40°38' W 074°08'0 0.0
2017-Sep-10 23:30N 40°38' W 074°08'0 0.0
2017-Sep-10 23:00N 40°38' W 074°08'0 0.0
2017-Sep-10 22:30N 40°38' W 074°08'0 0.0
2017-Sep-10 22:00N 40°38' W 074°08'0 0.0
2017-Sep-10 21:30N 40°38' W 074°08'0 0.0
2017-Sep-10 21:00N 40°38' W 074°08'0 0.0
2017-Sep-10 20:30N 40°38' W 074°08'0 0.0
2017-Sep-10 20:00N 40°38' W 074°08'0 0.0
2017-Sep-10 19:30N 40°38' W 074°08'0 0.0
2017-Sep-10 19:00N 40°38' W 074°08'0 0.0
2017-Sep-10 18:29N 40°38' W 074°08'0 0.0
2017-Sep-10 18:00N 40°38' W 074°08'1 2.0
2017-Sep-10 17:30N 40°39' W 074°07'0 0.0
2017-Sep-10 17:00N 40°39' W 074°07'0 0.0
2017-Sep-10 16:30N 40°39' W 074°07'0 0.0
2017-Sep-10 16:00N 40°39' W 074°07'0 0.2
2017-Sep-10 15:30N 40°39' W 074°07'0 0.3
2017-Sep-10 15:00N 40°39' W 074°06'1 1.0
2017-Sep-10 13:59N 40°38' W 074°08'0 0.0
2017-Sep-10 13:30N 40°38' W 074°08'0 0.0
2017-Sep-10 13:00N 40°38' W 074°08'0 0.0
2017-Sep-10 12:27N 40°38' W 074°08'0 0.0
2017-Sep-10 11:58N 40°38' W 074°08'0 0.0
2017-Sep-10 11:28N 40°38' W 074°08'0 0.0
2017-Sep-10 10:59N 40°38' W 074°08'0 0.0
2017-Sep-10 10:29N 40°38' W 074°08'0 0.0
2017-Sep-10 10:00N 40°38' W 074°08'0 0.0
2017-Sep-10 09:30N 40°38' W 074°08'0 0.0
2017-Sep-10 09:00N 40°38' W 074°08'0 0.0
2017-Sep-10 08:30N 40°38' W 074°08'0 0.0
2017-Sep-10 08:00N 40°38' W 074°08'0 0.0
2017-Sep-10 07:31N 40°38' W 074°08'0 0.0
2017-Sep-10 07:00N 40°38' W 074°08'0 0.0
2017-Sep-10 06:30N 40°38' W 074°08'3 5.7
2017-Sep-10 06:00N 40°38' W 074°12'1 1.7
2017-Sep-10 05:30N 40°38' W 074°12'0 0.2
2017-Sep-10 04:57N 40°38' W 074°12'0 0.3
2017-Sep-10 04:30N 40°38' W 074°12'0 0.1
2017-Sep-10 02:48N 40°38' W 074°12'1 4.1
2017-Sep-10 02:30N 40°36' W 074°12'2 3.2
2017-Sep-10 01:57N 40°35' W 074°13'3 6.7
2017-Sep-10 01:28N 40°32' W 074°15'0 0.0
2017-Sep-10 01:00N 40°32' W 074°15'0 0.0
2017-Sep-10 00:15N 40°32' W 074°15'0 0.0
2017-Sep-09 23:50N 40°32' W 074°15'0 0.0
2017-Sep-09 23:26N 40°32' W 074°15'0 0.0
2017-Sep-09 22:39N 40°32' W 074°15'0 0.0
2017-Sep-09 22:30N 40°32' W 074°15'0 0.0
2017-Sep-09 21:55N 40°32' W 074°15'0 0.0
2017-Sep-09 21:28N 40°32' W 074°15'0 0.0
2017-Sep-09 20:11N 40°32' W 074°15'0 0.0
2017-Sep-09 19:59N 40°32' W 074°15'  

Dump ship's entire track history